This is the latest recevied weather packets stored in our database for station/object JE3XST-13. If no packets are shown the sender has not sent any weather packets the latest 10 day(s).
| Time | Temp. | Humidity | Pressure | Rain* | Wind** | Luminosity | Snow |
|---|---|---|---|---|---|---|---|
| 1777695329 | 24.44° C | 48% | 1010.3 hPa | 0 mm | - | - | - |
| 1777693529 | 23.33° C | 50% | 1010.6 hPa | 0 mm | - | - | - |
| 1777691729 | 22.78° C | 51% | 1010.5 hPa | 0 mm | - | - | - |
| 1777689929 | 23.33° C | 49% | 1010.7 hPa | 0 mm | - | - | - |
| 1777688129 | 22.22° C | 49% | 1011.1 hPa | 0 mm | - | - | - |
| 1777686328 | 21.67° C | 51% | 1011.3 hPa | 0 mm | - | - | - |
| 1777684529 | 20.56° C | 58% | 1011.3 hPa | 0 mm | - | - | - |
| 1777682728 | 19.44° C | 62% | 1011.3 hPa | 0 mm | - | - | - |
| 1777680929 | 18.33° C | 65% | 1011.1 hPa | 0 mm | - | - | - |
| 1777679129 | 17.22° C | 69% | 1011.1 hPa | 0 mm | - | - | - |
| 1777677328 | 16.11° C | 77% | 1011 hPa | 0 mm | - | - | - |
| 1777675529 | 15° C | 81% | 1010.8 hPa | 0 mm | - | - | - |
| 1777673729 | 14.44° C | 83% | 1010.6 hPa | 0 mm | - | - | - |
| 1777671929 | 13.89° C | 86% | 1010.2 hPa | 0 mm | - | - | - |
| 1777670129 | 12.78° C | 89% | 1009.9 hPa | 0 mm | - | - | - |
| 1777668328 | 12.22° C | 88% | 1010 hPa | 0 mm | - | - | - |
| 1777666527 | 12.78° C | 84% | 1009.8 hPa | 0 mm | - | - | - |
| 1777664728 | 13.33° C | 84% | 1009.5 hPa | 0 mm | - | - | - |
| 1777662928 | 13.33° C | 86% | 1009.2 hPa | 0 mm | - | - | - |
| 1777661128 | 13.33° C | 87% | 1008.9 hPa | 0 mm | - | - | - |
| 1777659328 | 13.33° C | 88% | 1008.6 hPa | 0 mm | - | - | - |
| 1777657528 | 13.33° C | 89% | 1007.7 hPa | 0 mm | - | - | - |
| 1777655727 | 12.78° C | 90% | 1007.6 hPa | 0 mm | - | - | - |
| 1777653929 | 12.78° C | 92% | 1007.1 hPa | 0 mm | - | - | - |
| 1777652129 | 12.22° C | 93% | 1007.1 hPa | 0.25 mm | - | - | - |
* Rain latest hour (hover to see other rain measurements)
** Current wind speed in m/s (hover to see current wind gust speed)